createdAt,value
2022-12-08T00:01:12.417Z,23.85
2022-12-08T00:05:32.893Z,24.48
2022-12-08T00:09:39.516Z,23.13
2022-12-08T00:13:41.966Z,27.60
2022-12-08T00:17:43.547Z,22.33
2022-12-08T00:21:45.290Z,23.65
2022-12-08T00:25:46.859Z,21.52
2022-12-08T00:29:48.535Z,24.15
2022-12-08T00:33:50.241Z,25.30
2022-12-08T00:37:56.136Z,21.15
2022-12-08T00:42:12.776Z,22.10
2022-12-08T00:46:14.424Z,26.73
2022-12-08T00:50:16.013Z,25.77
2022-12-08T00:54:18.317Z,27.75
2022-12-08T00:58:19.827Z,21.75
2022-12-08T01:02:21.518Z,22.85
2022-12-08T01:06:23.211Z,25.40
2022-12-08T01:10:24.744Z,22.17
2022-12-08T01:14:26.313Z,21.33
2022-12-08T01:18:28.692Z,23.17
2022-12-08T01:22:30.210Z,24.05
2022-12-08T01:26:31.767Z,18.85
2022-12-08T01:30:33.490Z,22.45
2022-12-08T01:34:35.260Z,27.15
2022-12-08T01:38:36.824Z,22.15
2022-12-08T01:42:38.500Z,23.50
2022-12-08T01:46:42.295Z,24.35
2022-12-08T01:50:44.272Z,21.67
2022-12-08T01:54:59.684Z,20.50
2022-12-08T01:59:01.788Z,22.67
2022-12-08T02:03:17.823Z,23.77
2022-12-08T02:07:20.342Z,24.30
2022-12-08T02:11:22.132Z,23.35
2022-12-08T02:15:46.909Z,21.80
2022-12-08T02:19:54.174Z,22.90
2022-12-08T02:23:55.735Z,21.20
2022-12-08T02:28:44.495Z,21.92
2022-12-08T02:32:58.270Z,22.05
2022-12-08T02:37:09.974Z,20.90
2022-12-08T02:41:26.449Z,21.08
2022-12-08T02:45:34.361Z,23.10
2022-12-08T02:49:36.118Z,21.45
2022-12-08T02:53:37.877Z,21.35
2022-12-08T02:58:14.707Z,24.10
2022-12-08T03:02:40.200Z,23.55
2022-12-08T03:06:53.040Z,21.92
2022-12-08T03:11:11.753Z,21.27
2022-12-08T03:15:18.463Z,22.60
2022-12-08T03:19:26.081Z,25.02
2022-12-08T03:23:28.118Z,22.33
2022-12-08T03:27:31.509Z,20.10
2022-12-08T03:31:38.119Z,23.73
2022-12-08T03:35:41.486Z,23.65
2022-12-08T03:39:43.331Z,21.48
2022-12-08T03:43:51.003Z,21.67
2022-12-08T03:47:52.530Z,22.73
2022-12-08T03:51:54.188Z,21.83
2022-12-08T03:55:55.762Z,19.55
2022-12-08T03:59:57.303Z,22.98
2022-12-08T04:03:59.127Z,18.80
2022-12-08T04:08:01.258Z,23.17
2022-12-08T04:12:02.948Z,20.67
2022-12-08T04:16:05.585Z,21.48
2022-12-08T04:20:07.991Z,23.63
2022-12-08T04:24:09.956Z,20.58
2022-12-08T04:28:11.559Z,21.63
2022-12-08T04:32:13.125Z,20.70
2022-12-08T04:36:14.863Z,20.08
2022-12-08T04:40:16.452Z,19.45
2022-12-08T04:44:18.111Z,22.45
2022-12-08T04:48:19.745Z,22.90
2022-12-08T04:52:22.422Z,24.15
2022-12-08T04:56:24.007Z,24.42
2022-12-08T05:00:25.809Z,18.35
2022-12-08T05:04:27.452Z,22.85
2022-12-08T05:08:29.847Z,19.98
2022-12-08T05:12:31.462Z,18.48
2022-12-08T05:16:33.173Z,19.30
2022-12-08T05:20:35.348Z,20.55
2022-12-08T05:24:38.048Z,20.10
2022-12-08T05:28:43.270Z,21.02
2022-12-08T05:32:45.483Z,21.85
2022-12-08T05:36:47.101Z,24.98
2022-12-08T05:40:48.698Z,27.33
2022-12-08T05:44:50.570Z,21.83
2022-12-08T05:48:52.680Z,18.85
2022-12-08T05:52:54.280Z,21.73
2022-12-08T05:56:55.976Z,23.17
2022-12-08T06:00:57.631Z,20.15
2022-12-08T06:04:59.260Z,20.95
2022-12-08T06:09:03.631Z,18.50
2022-12-08T06:13:05.257Z,18.58
2022-12-08T06:17:07.588Z,19.33
2022-12-08T06:21:11.787Z,21.13
2022-12-08T06:25:13.475Z,21.90
2022-12-08T06:29:15.659Z,21.17
2022-12-08T06:33:17.442Z,18.33
2022-12-08T06:37:19.283Z,22.27
2022-12-08T06:41:21.983Z,18.52
2022-12-08T06:45:23.603Z,21.23
2022-12-08T06:49:25.251Z,18.50
2022-12-08T06:53:28.039Z,23.13
2022-12-08T06:57:29.861Z,16.73
2022-12-08T07:01:31.529Z,21.52
2022-12-08T07:05:33.251Z,21.35
2022-12-08T07:09:35.075Z,18.65
2022-12-08T07:13:37.884Z,20.75
2022-12-08T07:17:39.434Z,20.80
2022-12-08T07:21:41.172Z,20.05
2022-12-08T07:25:42.793Z,18.17
2022-12-08T07:29:44.526Z,17.75
2022-12-08T07:33:46.321Z,21.95
2022-12-08T07:37:47.945Z,22.90
2022-12-08T07:41:49.580Z,16.10
2022-12-08T07:45:51.534Z,20.23
2022-12-08T07:49:53.295Z,19.93
2022-12-08T07:53:55.375Z,20.45
2022-12-08T07:57:57.218Z,21.38
2022-12-08T08:02:22.451Z,19.52
2022-12-08T08:06:20.620Z,23.25
2022-12-08T08:10:22.218Z,20.85
2022-12-08T08:14:24.228Z,19.10
2022-12-08T08:18:25.827Z,19.13
2022-12-08T08:22:27.747Z,16.23
2022-12-08T08:26:29.308Z,22.15
2022-12-08T08:30:30.983Z,20.25
2022-12-08T08:34:32.697Z,18.70
2022-12-08T08:38:35.416Z,15.95
2022-12-08T08:42:38.944Z,17.65
2022-12-08T08:46:41.546Z,22.45
2022-12-08T08:50:43.270Z,16.17
2022-12-08T08:54:44.847Z,20.02
2022-12-08T08:58:49.039Z,19.08
2022-12-08T09:02:50.651Z,17.55
2022-12-08T09:06:55.217Z,18.17
2022-12-08T09:10:57.253Z,17.10
2022-12-08T09:14:59.184Z,16.73
2022-12-08T09:19:00.979Z,14.80
2022-12-08T09:23:02.747Z,18.63
2022-12-08T09:27:04.565Z,13.10
2022-12-08T09:31:06.645Z,15.90
2022-12-08T09:35:08.667Z,16.33
2022-12-08T09:39:10.884Z,14.25
2022-12-08T09:43:35.556Z,19.35
2022-12-08T09:47:43.844Z,18.50
2022-12-08T09:51:46.642Z,16.35
2022-12-08T09:56:13.167Z,12.52
2022-12-08T10:00:15.436Z,18.23
2022-12-08T10:04:29.101Z,18.77
2022-12-08T10:08:44.517Z,17.02
2022-12-08T10:13:00.746Z,17.23
2022-12-08T10:17:32.018Z,13.52
2022-12-08T10:21:33.835Z,17.67
2022-12-08T10:25:43.132Z,20.80
2022-12-08T10:29:44.735Z,16.02
2022-12-08T10:33:48.295Z,13.60
2022-12-08T10:38:02.526Z,14.48
2022-12-08T10:42:07.001Z,14.70
2022-12-08T10:46:21.497Z,14.15
2022-12-08T10:50:31.212Z,14.20
2022-12-08T10:54:35.811Z,14.90
2022-12-08T10:58:42.676Z,16.73
2022-12-08T11:02:52.643Z,16.48
2022-12-08T11:06:54.480Z,15.23
2022-12-08T11:10:56.126Z,15.85
2022-12-08T11:15:03.409Z,14.20
2022-12-08T11:19:08.296Z,17.80
2022-12-08T11:23:24.622Z,13.10
2022-12-08T11:27:26.537Z,15.25
2022-12-08T11:31:35.365Z,16.33
2022-12-08T11:35:40.351Z,12.50
2022-12-08T11:39:48.762Z,15.00
2022-12-08T11:44:06.074Z,20.02
2022-12-08T11:48:37.086Z,13.82
2022-12-08T11:52:50.702Z,14.32
2022-12-08T11:57:01.935Z,16.50
2022-12-08T12:01:03.639Z,13.93
2022-12-08T12:05:39.907Z,15.07
2022-12-08T12:10:03.327Z,13.57
2022-12-08T12:14:11.206Z,15.52
2022-12-08T12:18:31.497Z,14.45
2022-12-08T12:22:39.476Z,16.30
2022-12-08T12:26:55.317Z,13.20
2022-12-08T12:31:25.751Z,16.05
2022-12-08T12:35:37.476Z,13.02
2022-12-08T12:40:17.371Z,15.80
2022-12-08T12:44:19.032Z,14.73
2022-12-08T12:48:24.667Z,14.38
2022-12-08T12:52:32.843Z,16.80
2022-12-08T12:57:09.824Z,16.10
2022-12-08T13:01:11.593Z,10.57
2022-12-08T13:05:13.350Z,14.52
2022-12-08T13:09:37.133Z,12.10
2022-12-08T13:13:55.263Z,12.88
2022-12-08T13:17:57.926Z,15.90
2022-12-08T13:22:01.162Z,14.10
2022-12-08T13:26:16.779Z,16.65
2022-12-08T13:30:44.660Z,10.45
2022-12-08T13:34:55.481Z,11.68
2022-12-08T13:38:58.798Z,10.85
2022-12-08T13:43:16.497Z,13.52
2022-12-08T13:47:37.181Z,11.35
2022-12-08T14:00:28.059Z,15.40
2022-12-08T14:04:47.904Z,13.50
2022-12-08T14:13:12.503Z,16.55
2022-12-08T14:17:17.407Z,14.45
2022-12-08T14:21:21.392Z,14.45
2022-12-08T14:25:26.903Z,15.68
2022-12-08T14:29:44.373Z,16.60
2022-12-08T14:33:49.361Z,13.85
2022-12-08T14:37:58.766Z,14.95
2022-12-08T14:42:01.013Z,14.90
2022-12-08T14:46:24.700Z,11.87
2022-12-08T14:50:46.456Z,19.65
2022-12-08T14:54:50.189Z,16.52
2022-12-08T14:59:05.128Z,15.07
2022-12-08T15:03:07.763Z,12.93
2022-12-08T15:07:18.750Z,15.18
2022-12-08T15:11:23.125Z,15.02
2022-12-08T15:15:24.710Z,13.00
2022-12-08T15:19:29.705Z,13.43
2022-12-08T15:23:42.661Z,15.15
2022-12-08T15:27:50.595Z,19.10
2022-12-08T15:31:56.050Z,13.45
2022-12-08T15:35:57.857Z,15.50
2022-12-08T15:39:59.919Z,12.07
2022-12-08T15:44:01.557Z,15.13
2022-12-08T15:48:03.296Z,15.45
2022-12-08T15:52:11.456Z,15.52
2022-12-08T15:56:29.337Z,15.80
2022-12-08T16:09:23.466Z,14.02
2022-12-08T16:13:57.393Z,19.42
2022-12-08T16:18:00.134Z,16.75
2022-12-08T16:22:51.322Z,18.70
2022-12-08T16:27:06.861Z,15.18
2022-12-08T16:30:46.208Z,20.42
2022-12-08T16:34:48.846Z,13.95
2022-12-08T16:38:50.534Z,13.80
2022-12-08T16:42:52.134Z,16.52
2022-12-08T16:46:53.731Z,16.48
2022-12-08T16:50:56.070Z,15.90
2022-12-08T16:54:59.849Z,16.23
2022-12-08T16:59:02.247Z,12.82
2022-12-08T17:03:08.298Z,16.92
2022-12-08T17:07:10.013Z,17.27
2022-12-08T17:11:22.552Z,16.27
2022-12-08T17:15:25.723Z,13.90
2022-12-08T17:19:27.469Z,17.63
2022-12-08T17:23:29.280Z,20.63
2022-12-08T17:27:33.718Z,17.75
2022-12-08T17:31:48.712Z,21.33
2022-12-08T17:35:55.256Z,17.50
2022-12-08T17:40:12.906Z,16.08
2022-12-08T17:44:25.613Z,17.42
2022-12-08T17:48:28.335Z,14.68
2022-12-08T17:52:29.983Z,18.27
2022-12-08T17:56:31.627Z,16.80
2022-12-08T18:00:34.003Z,17.45
2022-12-08T18:04:35.667Z,16.42
2022-12-08T18:08:37.427Z,21.08
2022-12-08T18:12:39.083Z,19.90
2022-12-08T18:16:45.957Z,21.77
2022-12-08T18:20:47.614Z,17.48
2022-12-08T18:24:50.097Z,15.85
2022-12-08T18:28:51.671Z,20.05
2022-12-08T18:32:57.268Z,19.00
2022-12-08T18:36:59.118Z,20.70
2022-12-08T18:41:08.873Z,21.40
2022-12-08T18:45:10.930Z,20.15
2022-12-08T18:49:15.927Z,20.23
2022-12-08T18:53:17.950Z,18.02
2022-12-08T18:57:19.630Z,17.75
2022-12-08T19:01:21.476Z,18.92
2022-12-08T19:05:23.128Z,21.10
2022-12-08T19:09:26.878Z,23.52
2022-12-08T19:13:28.795Z,22.00
2022-12-08T19:17:30.409Z,22.75
2022-12-08T19:21:32.334Z,20.95
2022-12-08T19:25:33.983Z,22.02
2022-12-08T19:29:35.612Z,22.92
2022-12-08T19:33:38.231Z,26.35
2022-12-08T19:37:40.091Z,24.25
2022-12-08T19:42:00.535Z,24.73
2022-12-08T19:46:02.497Z,22.77
2022-12-08T19:50:24.448Z,20.43
2022-12-08T19:54:26.371Z,19.92
2022-12-08T19:58:28.145Z,20.73
2022-12-08T20:02:29.850Z,21.77
2022-12-08T20:06:31.794Z,22.20
2022-12-08T20:10:37.470Z,27.45
2022-12-08T20:14:44.170Z,23.25
2022-12-08T20:18:48.678Z,21.27
2022-12-08T20:26:51.855Z,19.27
2022-12-08T20:30:53.489Z,25.48
2022-12-08T20:34:55.407Z,24.48
2022-12-08T20:38:57.284Z,20.70
2022-12-08T20:42:58.919Z,24.35
2022-12-08T20:47:00.500Z,23.08
2022-12-08T20:51:02.952Z,21.42
2022-12-08T20:55:06.723Z,24.83
2022-12-08T20:59:08.411Z,21.05
2022-12-08T21:03:13.127Z,21.13
2022-12-08T21:07:14.958Z,21.02
2022-12-08T21:11:17.037Z,26.92
2022-12-08T21:15:18.904Z,21.87
2022-12-08T21:19:21.723Z,22.52
2022-12-08T21:23:23.556Z,21.77
2022-12-08T21:27:25.220Z,25.35
2022-12-08T21:31:29.218Z,24.20
2022-12-08T21:35:31.225Z,23.77
2022-12-08T21:39:33.045Z,24.80
2022-12-08T21:43:35.404Z,24.38
2022-12-08T21:47:37.501Z,22.38
2022-12-08T21:51:42.404Z,18.85
2022-12-08T21:55:44.344Z,22.30
2022-12-08T21:59:46.001Z,21.83
2022-12-08T22:03:47.879Z,22.05
2022-12-08T22:07:50.394Z,20.17
2022-12-08T22:11:52.375Z,18.20
2022-12-08T22:15:58.867Z,18.77
2022-12-08T22:20:00.656Z,20.13
2022-12-08T22:24:02.596Z,18.25
2022-12-08T22:28:04.692Z,19.88
2022-12-08T22:32:06.718Z,12.47
2022-12-08T22:36:14.543Z,17.27
2022-12-08T22:40:16.738Z,21.08
2022-12-08T22:44:18.545Z,16.80
2022-12-08T22:48:20.326Z,19.95
2022-12-08T22:52:22.060Z,18.52
2022-12-08T22:56:23.783Z,19.30
2022-12-08T23:00:25.573Z,18.15
2022-12-08T23:04:27.513Z,22.90
2022-12-08T23:08:29.445Z,17.33
2022-12-08T23:12:31.140Z,15.93
2022-12-08T23:16:33.585Z,17.95
2022-12-08T23:20:35.644Z,17.95
2022-12-08T23:24:37.321Z,15.40
2022-12-08T23:28:38.911Z,20.92
2022-12-08T23:32:40.902Z,19.85
2022-12-08T23:36:42.561Z,18.77
2022-12-08T23:40:44.187Z,19.95
2022-12-08T23:44:45.888Z,17.88
2022-12-08T23:48:48.061Z,16.98
2022-12-08T23:52:49.960Z,19.77
2022-12-08T23:56:51.761Z,16.83
